Time;durP1;ratioP1;P1;durP2;ratioP2;P2;SDS_P1;SDS_P2;PMS_P1;PMS_P2;Temp;Humidity;BMP_temperature;BMP_pressure;BME280_temperature;BME280_humidity;BME280_pressure;Samples;Min_cycle;Max_cycle;Signal;HPM_P1;HPM_P2
2020/12/11 00:00:21;;;;;;;;;;;9.70;99.90;;;;;;5027589;28;20033;-88
2020/12/11 00:02:46;;;;;;;0.98;0.98;;;9.70;99.90;;;;;;5027275;28;19943;-87
2020/12/11 00:05:13;;;;;;;1.85;1.15;;;9.70;99.90;;;;;;5028676;28;20057;-88
2020/12/11 00:07:42;;;;;;;0.70;0.70;;;9.70;99.90;;;;;;5011271;28;20034;-88
2020/12/11 00:10:09;;;;;;;0.28;0.28;;;9.70;99.90;;;;;;5013590;28;20817;-88
2020/12/11 00:12:37;;;;;;;3.92;1.65;;;9.70;99.90;;;;;;5014605;28;20518;-89
2020/12/11 00:15:04;;;;;;;0.20;0.20;;;9.70;99.90;;;;;;5028359;28;20029;-89
2020/12/11 00:17:30;;;;;;;1.15;1.15;;;9.70;99.90;;;;;;5047243;28;20045;-88
2020/12/11 00:19:56;;;;;;;0.10;0.10;;;9.70;99.90;;;;;;5048397;28;20082;-88
2020/12/11 00:22:22;;;;;;;0.25;0.25;;;9.60;99.90;;;;;;5049079;28;20033;-88
2020/12/11 00:24:49;;;;;;;0.70;0.45;;;9.60;99.90;;;;;;5029660;28;20028;-88
2020/12/11 00:27:15;;;;;;;0.40;0.40;;;9.60;99.90;;;;;;5030070;28;20059;-88
2020/12/11 00:29:41;;;;;;;0.85;0.85;;;9.60;99.90;;;;;;5048121;28;20513;-88
2020/12/11 00:32:07;;;;;;;0.30;0.30;;;9.70;99.90;;;;;;5035854;28;20029;-88
2020/12/11 00:34:34;;;;;;;0.27;0.27;;;9.60;99.90;;;;;;5030391;28;20024;-88
2020/12/11 00:37:00;;;;;;;0.10;0.10;;;9.50;99.90;;;;;;5029729;28;20029;-88
2020/12/11 00:39:26;;;;;;;0.10;0.10;;;9.50;99.90;;;;;;5048637;28;20060;-88
2020/12/11 00:41:54;;;;;;;2.05;1.17;;;9.60;99.90;;;;;;5047628;28;20057;-87
2020/12/11 00:44:20;;;;;;;0.25;0.25;;;9.50;99.90;;;;;;5048063;28;20051;-88
2020/12/11 00:46:46;;;;;;;0.10;0.10;;;9.50;99.90;;;;;;5048290;28;20021;-89
2020/12/11 00:49:12;;;;;;;0.98;0.47;;;9.50;99.90;;;;;;5047769;28;20477;-88
2020/12/11 00:51:37;;;;;;;0.10;0.10;;;9.40;99.90;;;;;;5047060;28;20029;-88
2020/12/11 00:54:03;;;;;;;0.47;0.47;;;9.40;99.90;;;;;;5047943;28;20017;-89
2020/12/11 00:56:29;;;;;;;0.63;0.52;;;9.40;99.90;;;;;;5029224;28;20035;-88
2020/12/11 00:58:55;;;;;;;0.10;0.10;;;9.50;99.90;;;;;;5029241;28;20119;-90
2020/12/11 01:01:21;;;;;;;0.20;0.20;;;9.50;99.90;;;;;;5047832;28;20036;-88
2020/12/11 01:03:47;;;;;;;0.30;0.30;;;9.50;99.90;;;;;;5047745;28;20040;-88
2020/12/11 01:06:12;;;;;;;0.10;0.10;;;9.50;99.90;;;;;;5029199;28;20033;-88
2020/12/11 01:08:38;;;;;;;0.20;0.20;;;9.40;99.90;;;;;;5030104;28;20048;-88
2020/12/11 01:11:04;;;;;;;0.10;0.10;;;9.50;99.90;;;;;;5029547;28;20029;-88
2020/12/11 01:13:30;;;;;;;0.82;0.82;;;9.40;99.90;;;;;;5047249;28;20037;-90
2020/12/11 01:15:56;;;;;;;0.10;0.10;;;9.40;99.90;;;;;;5027427;28;20123;-90
2020/12/11 01:18:21;;;;;;;0.20;0.20;;;9.50;99.90;;;;;;5029082;28;20106;-90
2020/12/11 01:20:47;;;;;;;0.20;0.20;;;9.50;99.90;;;;;;5062262;28;20418;-90
2020/12/11 01:23:13;;;;;;;0.10;0.10;;;9.40;99.90;;;;;;5025858;28;20498;-90
2020/12/11 01:25:39;;;;;;;0.40;0.40;;;9.40;99.90;;;;;;5028960;28;20036;-91
2020/12/11 01:28:04;;;;;;;0.43;0.43;;;9.30;99.90;;;;;;5029112;28;20572;-90
2020/12/11 01:30:31;;;;;;;1.35;0.47;;;9.30;99.90;;;;;;5029527;28;20021;-90
2020/12/11 01:32:57;;;;;;;0.30;0.30;;;9.40;99.90;;;;;;5029149;28;20438;-89
2020/12/11 01:35:23;;;;;;;0.10;0.10;;;9.30;99.90;;;;;;5028315;28;20033;-90
2020/12/11 01:37:49;;;;;;;0.22;0.22;;;9.30;99.90;;;;;;5025173;28;20520;-89
2020/12/11 01:40:14;;;;;;;0.10;0.10;;;9.40;99.90;;;;;;5029021;28;20104;-90
2020/12/11 01:42:41;;;;;;;0.75;0.75;;;9.40;99.90;;;;;;5028643;28;20093;-89
2020/12/11 01:45:07;;;;;;;0.95;0.95;;;9.40;99.90;;;;;;5029267;28;20033;-88
2020/12/11 01:47:43;;;;;;;0.10;0.10;;;9.40;99.90;;;;;;5046084;28;20033;-88
2020/12/11 01:50:18;;;;;;;1.63;1.52;;;9.40;99.90;;;;;;5027031;28;20514;-89
2020/12/11 01:52:46;;;;;;;0.10;0.10;;;9.30;99.90;;;;;;5016424;28;20025;-89
2020/12/11 01:55:12;;;;;;;0.10;0.10;;;9.30;99.90;;;;;;5047434;28;20537;-88
2020/12/11 01:58:01;;;;;;;0.10;0.10;;;9.30;99.90;;;;;;5027216;28;20474;-88
2020/12/11 02:00:28;;;;;;;0.30;0.30;;;9.30;99.90;;;;;;5016225;28;20118;-87
2020/12/11 02:03:05;;;;;;;0.73;0.73;;;9.30;99.90;;;;;;5031616;28;20033;-90
2020/12/11 02:05:31;;;;;;;0.20;0.20;;;9.30;99.90;;;;;;5053996;28;20033;-88
2020/12/11 02:08:00;;;;;;;0.50;0.50;;;9.30;99.90;;;;;;5032604;28;20040;-88
2020/12/11 02:10:26;;;;;;;0.10;0.10;;;9.30;99.90;;;;;;5053989;28;20024;-88
2020/12/11 02:12:53;;;;;;;0.10;0.10;;;9.30;99.90;;;;;;5050747;28;20028;-89
2020/12/11 02:15:19;;;;;;;0.10;0.10;;;9.40;99.90;;;;;;5053232;28;20021;-88
2020/12/11 02:17:44;;;;;;;0.10;0.10;;;9.30;99.90;;;;;;5050372;28;20152;-88
2020/12/11 02:20:10;;;;;;;0.43;0.43;;;9.30;99.90;;;;;;5029966;28;20029;-89
2020/12/11 02:22:36;;;;;;;0.10;0.10;;;9.30;99.90;;;;;;5025777;28;20629;-88
2020/12/11 02:25:03;;;;;;;0.10;0.10;;;9.30;99.90;;;;;;5049778;28;20059;-87
2020/12/11 02:27:29;;;;;;;0.10;0.10;;;9.30;99.90;;;;;;5050049;28;20040;-88
2020/12/11 02:29:55;;;;;;;1.63;0.70;;;9.30;99.90;;;;;;5048987;28;20036;-88
2020/12/11 02:32:21;;;;;;;0.10;0.10;;;9.20;99.90;;;;;;5029935;28;20080;-88
2020/12/11 02:34:47;;;;;;;0.15;0.15;;;9.20;99.90;;;;;;5028962;28;20037;-89
2020/12/11 02:37:13;;;;;;;0.10;0.10;;;9.20;99.90;;;;;;5048786;28;20762;-88
2020/12/11 02:39:40;;;;;;;0.20;0.20;;;9.30;99.90;;;;;;5050399;28;20041;-88
2020/12/11 02:42:07;;;;;;;0.15;0.15;;;9.20;99.90;;;;;;5049425;28;20116;-88
2020/12/11 02:44:33;;;;;;;0.10;0.10;;;9.30;99.90;;;;;;5050923;28;20061;-87
2020/12/11 02:46:59;;;;;;;0.35;0.35;;;9.30;99.90;;;;;;5029548;28;20103;-87
2020/12/11 02:49:25;;;;;;;0.15;0.15;;;9.20;99.90;;;;;;5032290;28;20509;-88
2020/12/11 02:51:50;;;;;;;0.30;0.30;;;9.30;99.90;;;;;;5028871;28;20066;-88
2020/12/11 02:54:16;;;;;;;3.92;1.10;;;9.30;99.90;;;;;;5031185;28;20033;-87
2020/12/11 02:56:42;;;;;;;0.10;0.10;;;9.30;99.90;;;;;;5031789;28;20037;-88
2020/12/11 02:59:08;;;;;;;0.22;0.22;;;9.30;99.90;;;;;;5030898;28;20822;-88
2020/12/11 03:01:33;;;;;;;0.10;0.10;;;9.30;99.90;;;;;;5050958;28;20054;-88
2020/12/11 03:03:59;;;;;;;0.10;0.10;;;9.30;99.90;;;;;;5035792;28;20024;-88
2020/12/11 03:06:30;;;;;;;0.10;0.10;;;9.20;99.90;;;;;;5050340;28;20505;-89
2020/12/11 03:08:56;;;;;;;0.17;0.17;;;9.20;99.90;;;;;;5029240;28;20037;-88
2020/12/11 03:11:22;;;;;;;0.25;0.25;;;9.20;99.90;;;;;;5032297;28;20021;-88
2020/12/11 03:13:48;;;;;;;0.40;0.40;;;9.20;99.90;;;;;;5048756;28;20035;-88
2020/12/11 03:16:16;;;;;;;0.10;0.10;;;9.20;99.90;;;;;;5022232;28;20042;-88
2020/12/11 03:18:43;;;;;;;0.10;0.10;;;9.20;99.90;;;;;;5006410;28;20036;-88
2020/12/11 03:21:09;;;;;;;;;;;9.30;99.90;;;;;;5005682;28;20506;-90
2020/12/11 03:23:34;;;;;;;0.10;0.10;;;9.30;99.90;;;;;;5010828;28;19917;-90
2020/12/11 03:26:00;;;;;;;0.20;0.20;;;9.20;99.90;;;;;;5015380;28;20793;-90
2020/12/11 03:28:26;;;;;;;0.20;0.20;;;9.30;99.90;;;;;;5006051;28;20537;-90
2020/12/11 03:30:51;;;;;;;0.10;0.10;;;9.30;99.90;;;;;;5003706;28;20554;-90
2020/12/11 03:33:17;;;;;;;0.10;0.10;;;9.30;99.90;;;;;;5016173;28;20033;-89
2020/12/11 03:35:43;;;;;;;0.82;0.82;;;9.30;99.90;;;;;;5011147;28;20033;-89
2020/12/11 03:38:09;;;;;;;0.38;0.38;;;9.30;99.90;;;;;;5001562;28;20022;-89
2020/12/11 03:40:34;;;;;;;0.10;0.10;;;9.30;99.90;;;;;;5009829;28;20030;-89
2020/12/11 03:43:00;;;;;;;0.10;0.10;;;9.20;99.90;;;;;;4993159;28;20018;-89
2020/12/11 03:45:26;;;;;;;2.05;0.98;;;9.20;99.90;;;;;;5011870;28;20566;-89
2020/12/11 03:47:52;;;;;;;0.10;0.10;;;9.10;99.90;;;;;;5023918;28;20510;-89
2020/12/11 03:50:17;;;;;;;0.10;0.10;;;9.10;99.90;;;;;;5009824;28;20030;-89
2020/12/11 03:52:43;;;;;;;0.30;0.30;;;8.90;99.90;;;;;;5007571;28;20746;-89
2020/12/11 03:55:09;;;;;;;0.10;0.10;;;8.70;99.90;;;;;;5003793;28;20109;-88
2020/12/11 03:57:35;;;;;;;0.10;0.10;;;8.50;99.90;;;;;;5010151;28;20032;-88
2020/12/11 04:00:00;;;;;;;0.10;0.10;;;8.20;1.00;;;;;;5001641;28;20033;-87
2020/12/11 04:02:26;;;;;;;0.10;0.10;;;8.00;99.90;;;;;;5029093;28;20036;-87
2020/12/11 04:04:52;;;;;;;1.00;0.88;;;7.90;99.90;;;;;;5019175;28;20064;-88
2020/12/11 04:07:17;;;;;;;0.30;0.30;;;7.80;1.00;;;;;;5000900;28;20038;-87
2020/12/11 04:09:43;;;;;;;0.10;0.10;;;7.70;1.00;;;;;;5004168;28;20087;-88
2020/12/11 04:12:09;;;;;;;0.20;0.20;;;7.70;92.90;;;;;;5017684;28;20032;-88
2020/12/11 04:14:35;;;;;;;0.20;0.20;;;7.60;26.10;;;;;;5027502;28;20108;-89
2020/12/11 04:17:00;;;;;;;0.47;0.47;;;9.90;99.90;;;;;;5023312;28;20052;-90
2020/12/11 04:19:27;;;;;;;0.57;0.57;;;9.70;99.90;;;;;;5022505;28;20083;-90
2020/12/11 04:21:54;;;;;;;0.10;0.10;;;9.40;99.90;;;;;;5019782;28;20063;-88
2020/12/11 04:24:21;;;;;;;0.20;0.20;;;9.00;99.90;;;;;;5047180;28;20036;-88
2020/12/11 04:26:47;;;;;;;0.10;0.10;;;9.00;99.90;;;;;;5029528;28;20028;-88
2020/12/11 04:29:14;;;;;;;;;;;9.00;99.90;;;;;;5039309;28;20131;-89
2020/12/11 04:31:40;;;;;;;0.10;0.10;;;9.10;99.90;;;;;;5039695;28;20011;-89
2020/12/11 04:34:07;;;;;;;0.30;0.30;;;9.30;99.90;;;;;;5037693;28;20490;-88
2020/12/11 04:36:33;;;;;;;0.10;0.10;;;9.20;99.90;;;;;;5048060;28;20032;-89
2020/12/11 04:38:59;;;;;;;0.37;0.37;;;9.20;99.90;;;;;;5019514;28;21368;-89
2020/12/11 04:41:37;;;;;;;0.10;0.10;;;9.20;99.90;;;;;;5030148;28;20029;-89
2020/12/11 04:44:05;;;;;;;0.32;0.32;;;9.10;99.90;;;;;;5017382;28;20151;-89
2020/12/11 04:46:30;;;;;;;0.10;0.10;;;9.10;99.90;;;;;;5036285;28;20063;-89
2020/12/11 04:48:56;;;;;;;0.30;0.30;;;9.10;99.90;;;;;;5029644;28;20056;-89
2020/12/11 04:51:30;;;;;;;1.00;0.90;;;9.20;99.90;;;;;;5045360;28;20461;-89
2020/12/11 04:53:58;;;;;;;0.20;0.20;;;9.10;99.90;;;;;;5013559;28;20020;-89
2020/12/11 04:56:25;;;;;;;3.42;0.63;;;9.00;99.90;;;;;;5031570;28;20101;-89
2020/12/11 04:58:52;;;;;;;0.10;0.10;;;8.70;99.90;;;;;;5031225;28;20120;-89
2020/12/11 05:01:38;;;;;;;0.10;0.10;;;8.30;99.90;;;;;;5025891;28;20029;-89
2020/12/11 05:04:04;;;;;;;0.10;0.10;;;8.30;99.90;;;;;;5022479;28;20032;-90
2020/12/11 05:06:30;;;;;;;0.10;0.10;;;8.70;99.90;;;;;;5025065;28;20032;-90
2020/12/11 05:09:20;;;;;;;0.25;0.25;;;9.20;99.90;;;;;;5029225;28;20021;-91
2020/12/11 05:11:47;;;;;;;0.68;0.68;;;9.60;99.90;;;;;;5021176;28;20070;-90
2020/12/11 05:14:27;;;;;;;0.10;0.10;;;9.60;99.90;;;;;;5034310;28;20021;-90
2020/12/11 05:17:04;;;;;;;0.80;0.77;;;9.40;99.90;;;;;;5025732;28;20149;-90
2020/12/11 05:19:32;;;;;;;0.10;0.10;;;9.30;99.90;;;;;;5038890;28;20032;-90
2020/12/11 05:22:11;;;;;;;0.10;0.10;;;9.30;99.90;;;;;;5023264;28;20040;-90
2020/12/11 05:24:45;;;;;;;0.10;0.10;;;9.10;99.90;;;;;;5029738;28;20077;-91
2020/12/11 05:27:39;;;;;;;0.10;0.10;;;8.90;99.90;;;;;;5038494;28;20127;-90
2020/12/11 05:30:14;;;;;;;0.10;0.10;;;9.00;99.90;;;;;;5025397;28;20509;-89
2020/12/11 05:32:42;;;;;;;0.10;0.10;;;9.00;99.90;;;;;;5027806;28;20025;-90
2020/12/11 05:35:20;;;;;;;0.88;0.82;;;8.90;99.90;;;;;;5034152;28;20025;-90
2020/12/11 05:37:50;;;;;;;0.10;0.10;;;9.00;99.90;;;;;;5042851;28;20040;-89
2020/12/11 05:40:54;;;;;;;0.10;0.10;;;8.90;99.90;;;;;;5027694;28;20053;-89
2020/12/11 05:43:22;;;;;;;0.10;0.10;;;8.90;99.90;;;;;;5014245;28;20450;-95
2020/12/11 05:45:56;;;;;;;0.10;0.10;;;8.60;99.90;;;;;;5035440;28;20067;-94
2020/12/11 05:48:37;;;;;;;0.65;0.65;;;8.70;99.90;;;;;;5034955;28;20095;-93
2020/12/11 05:51:13;;;;;;;0.15;0.15;;;8.70;99.90;;;;;;5052264;28;20705;-89
2020/12/11 05:53:39;;;;;;;0.35;0.35;;;8.70;99.90;;;;;;5029625;28;20048;-90
2020/12/11 05:56:08;;;;;;;0.13;0.13;;;8.70;99.90;;;;;;5034511;28;20029;-90
2020/12/11 05:58:34;;;;;;;0.25;0.25;;;8.80;99.90;;;;;;5041684;28;20029;-90
2020/12/11 06:01:00;;;;;;;0.10;0.10;;;8.90;99.90;;;;;;5027136;28;20424;-92
2020/12/11 06:03:27;;;;;;;0.10;0.10;;;8.70;99.90;;;;;;5025362;28;20048;-92
2020/12/11 06:05:57;;;;;;;;;;;8.70;99.90;;;;;;5034125;28;20033;-92
2020/12/11 06:08:26;;;;;;;0.45;0.45;;;8.80;99.90;;;;;;5033922;28;19913;-92
2020/12/11 06:10:52;;;;;;;0.10;0.10;;;8.90;99.90;;;;;;5033077;28;20052;-92
2020/12/11 06:13:32;;;;;;;0.10;0.10;;;8.90;99.90;;;;;;5028617;28;20053;-90
2020/12/11 06:16:01;;;;;;;0.10;0.10;;;8.90;99.90;;;;;;5028594;28;20033;-91
2020/12/11 06:18:29;;;;;;;0.10;0.10;;;8.90;99.90;;;;;;5033573;28;20566;-91
2020/12/11 06:20:55;;;;;;;0.10;0.10;;;8.80;99.90;;;;;;5042327;28;20065;-90
2020/12/11 06:23:22;;;;;;;1.35;1.05;;;8.90;99.90;;;;;;5027367;28;20023;-88
2020/12/11 06:25:52;;;;;;;0.10;0.10;;;9.00;99.90;;;;;;5028162;28;20030;-93
2020/12/11 06:28:37;;;;;;;0.10;0.10;;;9.00;99.90;;;;;;5031726;28;20068;-88
2020/12/11 06:31:07;;;;;;;0.17;0.17;;;9.00;99.90;;;;;;5043679;28;20047;-87
2020/12/11 06:33:34;;;;;;;0.47;0.25;;;9.00;99.90;;;;;;5039747;28;20448;-87
2020/12/11 06:36:01;;;;;;;0.32;0.32;;;9.00;99.90;;;;;;5051529;28;20024;-86
2020/12/11 06:38:48;;;;;;;0.40;0.40;;;9.00;99.90;;;;;;5043124;28;20029;-87
2020/12/11 06:41:28;;;;;;;0.20;0.20;;;9.00;99.90;;;;;;5036802;28;20021;-86
2020/12/11 06:43:59;;;;;;;0.15;0.15;;;9.10;99.90;;;;;;5023090;28;20052;-87
2020/12/11 06:46:28;;;;;;;0.10;0.10;;;9.10;99.90;;;;;;5026873;28;20379;-88
2020/12/11 06:49:21;;;;;;;0.20;0.20;;;9.10;99.90;;;;;;5043656;28;20619;-88
2020/12/11 06:51:47;;;;;;;0.30;0.30;;;9.10;99.90;;;;;;5038029;28;20060;-89
2020/12/11 06:54:33;;;;;;;0.10;0.10;;;9.10;99.90;;;;;;5035115;28;20048;-87
2020/12/11 06:57:00;;;;;;;0.20;0.20;;;9.10;99.90;;;;;;5027911;28;20025;-90
2020/12/11 06:59:28;;;;;;;0.10;0.10;;;9.10;99.90;;;;;;5035039;28;20041;-92
2020/12/11 07:01:55;;;;;;;0.35;0.35;;;9.10;99.90;;;;;;5036403;28;20025;-92
2020/12/11 07:04:21;;;;;;;0.10;0.10;;;9.10;99.90;;;;;;5032254;28;20155;-91
2020/12/11 07:06:51;;;;;;;0.40;0.40;;;8.90;99.90;;;;;;5031170;28;20465;-91
2020/12/11 07:09:17;;;;;;;0.10;0.10;;;9.00;99.90;;;;;;5032443;28;20039;-89
2020/12/11 07:11:44;;;;;;;0.10;0.10;;;9.00;99.90;;;;;;5035330;28;20025;-89
2020/12/11 07:14:10;;;;;;;0.05;0.05;;;9.00;99.90;;;;;;5023963;28;20025;-89
2020/12/11 07:16:41;;;;;;;3.75;0.73;;;9.00;99.90;;;;;;5042092;28;20120;-90
2020/12/11 07:19:07;;;;;;;0.10;0.10;;;9.10;99.90;;;;;;5028151;28;20044;-91
2020/12/11 07:21:34;;;;;;;0.07;0.07;;;9.10;99.90;;;;;;5045638;28;20025;-90
2020/12/11 07:24:04;;;;;;;0.15;0.15;;;9.00;99.90;;;;;;5031847;28;20025;-90
2020/12/11 07:26:30;;;;;;;0.10;0.10;;;9.10;99.90;;;;;;5031177;28;20029;-89
2020/12/11 07:29:03;;;;;;;0.30;0.30;;;9.10;99.90;;;;;;5032372;28;20056;-89
2020/12/11 07:31:35;;;;;;;0.85;0.82;;;9.00;99.90;;;;;;5022354;28;20025;-88
2020/12/11 07:34:01;;;;;;;0.73;0.73;;;9.10;99.90;;;;;;5035589;28;20021;-88
2020/12/11 07:36:27;;;;;;;0.10;0.10;;;9.00;99.90;;;;;;5041799;28;20032;-88
2020/12/11 07:38:53;;;;;;;0.17;0.17;;;9.00;99.90;;;;;;5012695;28;20037;-88
2020/12/11 07:41:20;;;;;;;0.10;0.10;;;9.10;99.90;;;;;;5033021;28;20073;-88
2020/12/11 07:43:46;;;;;;;0.10;0.10;;;9.10;99.90;;;;;;5044703;28;20047;-88
2020/12/11 07:46:21;;;;;;;0.10;0.10;;;9.10;99.90;;;;;;5031387;28;20167;-89
2020/12/11 07:48:51;;;;;;;0.10;0.10;;;9.20;99.90;;;;;;5032118;28;20472;-89
2020/12/11 07:51:20;;;;;;;0.00;0.00;;;9.10;99.90;;;;;;5042144;28;20025;-92
2020/12/11 07:54:01;;;;;;;0.10;0.10;;;9.30;99.90;;;;;;5033148;28;20026;-92
2020/12/11 07:56:27;;;;;;;0.10;0.10;;;9.50;99.90;;;;;;5036325;28;20032;-92
2020/12/11 07:58:53;;;;;;;0.32;0.32;;;9.50;99.90;;;;;;5036633;28;20029;-92
2020/12/11 08:01:19;;;;;;;0.10;0.10;;;9.60;99.90;;;;;;5018178;28;20037;-90
2020/12/11 08:03:45;;;;;;;0.10;0.10;;;9.70;99.90;;;;;;5032198;28;20026;-89
2020/12/11 08:06:12;;;;;;;0.10;0.10;;;9.70;99.90;;;;;;5048882;28;20090;-89
2020/12/11 08:08:37;;;;;;;;;;;9.70;99.90;;;;;;5026277;28;20029;-89
2020/12/11 08:11:04;;;;;;;0.17;0.17;;;9.60;99.90;;;;;;5031093;28;19909;-89
2020/12/11 08:13:30;;;;;;;0.13;0.13;;;9.70;99.90;;;;;;5033304;28;20017;-90
2020/12/11 08:16:02;;;;;;;1.55;0.63;;;9.80;99.90;;;;;;5021584;28;20038;-90
2020/12/11 08:18:29;;;;;;;0.10;0.10;;;9.80;99.90;;;;;;5024101;28;20116;-90
2020/12/11 08:20:59;;;;;;;;;;;9.70;99.90;;;;;;5025651;28;20141;-90
2020/12/11 08:23:46;;;;;;;4.63;2.60;;;9.70;99.90;;;;;;5015868;28;19988;-90
2020/12/11 08:26:17;;;;;;;0.35;0.35;;;9.70;99.90;;;;;;5024084;28;20033;-90
2020/12/11 08:28:45;;;;;;;0.10;0.10;;;9.50;99.90;;;;;;5027608;28;20041;-91
2020/12/11 08:31:13;;;;;;;0.10;0.10;;;9.70;99.90;;;;;;5029236;28;20088;-90
2020/12/11 08:33:39;;;;;;;0.20;0.20;;;9.80;99.90;;;;;;5027454;28;20092;-90
2020/12/11 08:36:04;;;;;;;0.10;0.10;;;9.80;99.90;;;;;;5029438;28;20021;-89
2020/12/11 08:38:30;;;;;;;0.63;0.63;;;9.90;99.90;;;;;;5027805;28;20124;-89
2020/12/11 08:40:56;;;;;;;0.10;0.10;;;9.90;99.90;;;;;;5028697;28;20724;-89
2020/12/11 08:43:34;;;;;;;0.10;0.10;;;9.80;99.90;;;;;;5027754;28;20065;-89
2020/12/11 08:46:16;;;;;;;0.10;0.10;;;9.90;99.90;;;;;;5027829;28;20060;-90
2020/12/11 08:51:35;;;;;;;0.10;0.10;;;9.90;99.90;;;;;;5029123;28;20048;-90
2020/12/11 08:54:04;;;;;;;0.10;0.10;;;9.90;99.90;;;;;;5027509;28;20116;-91
2020/12/11 08:56:29;;;;;;;0.10;0.10;;;9.90;99.90;;;;;;5028880;28;20096;-90
2020/12/11 08:58:55;;;;;;;0.73;0.73;;;9.90;99.90;;;;;;5026890;28;20411;-90
2020/12/11 09:01:21;;;;;;;0.10;0.10;;;9.90;99.90;;;;;;5028192;28;20093;-90
2020/12/11 09:03:46;;;;;;;0.10;0.10;;;9.80;99.90;;;;;;5028584;28;20292;-90
2020/12/11 09:06:12;;;;;;;0.10;0.10;;;9.90;99.90;;;;;;5028644;28;20403;-88
2020/12/11 09:08:38;;;;;;;0.28;0.28;;;9.90;99.90;;;;;;5028569;28;20520;-89
2020/12/11 09:11:04;;;;;;;0.10;0.10;;;10.00;99.90;;;;;;5027616;28;20450;-90
2020/12/11 09:13:29;;;;;;;0.10;0.10;;;10.10;99.90;;;;;;5028644;28;20049;-90
2020/12/11 09:15:55;;;;;;;0.10;0.10;;;10.10;99.90;;;;;;5026812;28;20034;-90
2020/12/11 09:18:23;;;;;;;0.35;0.35;;;10.10;99.90;;;;;;5028916;28;20040;-90
2020/12/11 09:20:48;;;;;;;1.17;1.10;;;10.00;99.90;;;;;;5028434;28;20025;-90
2020/12/11 09:23:14;;;;;;;0.10;0.10;;;10.10;99.90;;;;;;5024141;28;20022;-90
2020/12/11 09:25:40;;;;;;;0.40;0.40;;;10.20;99.90;;;;;;5028532;28;20025;-90
2020/12/11 09:28:12;;;;;;;0.10;0.10;;;10.40;99.90;;;;;;5028616;28;20112;-90
2020/12/11 09:30:39;;;;;;;0.10;0.10;;;10.40;99.90;;;;;;5022978;28;20108;-90
2020/12/11 09:35:33;;;;;;;0.10;0.10;;;10.40;99.90;;;;;;5028881;28;20035;-91
2020/12/11 09:38:00;;;;;;;0.10;0.10;;;10.20;99.90;;;;;;5027271;28;20120;-90
2020/12/11 09:56:34;;;;;;;0.10;0.10;;;10.40;99.90;;;;;;4968277;28;20054;-90
2020/12/11 09:59:06;;;;;;;0.10;0.10;;;10.50;99.90;;;;;;4980119;28;20042;-90
2020/12/11 10:04:13;;;;;;;0.22;0.22;;;10.60;99.90;;;;;;4972422;28;20027;-89
2020/12/11 10:06:39;;;;;;;0.10;0.10;;;10.60;99.90;;;;;;4967901;28;20077;-89
2020/12/11 10:09:05;;;;;;;0.10;0.10;;;10.70;99.90;;;;;;4966954;28;20059;-90
2020/12/11 10:11:31;;;;;;;0.45;0.45;;;10.70;99.90;;;;;;4940143;28;20034;-90
2020/12/11 10:16:41;;;;;;;0.40;0.35;;;10.70;99.90;;;;;;4967609;28;20122;-91
2020/12/11 10:19:07;;;;;;;0.10;0.10;;;10.80;99.90;;;;;;4952314;28;20076;-90
2020/12/11 10:21:33;;;;;;;0.10;0.10;;;10.90;99.90;;;;;;4983136;28;20146;-91
2020/12/11 10:23:59;;;;;;;0.10;0.10;;;10.90;99.90;;;;;;4982757;28;20030;-89
2020/12/11 10:26:24;;;;;;;0.10;0.10;;;10.90;99.90;;;;;;5028679;28;20029;-89
2020/12/11 10:28:50;;;;;;;0.10;0.10;;;11.10;99.90;;;;;;5031669;28;20041;-90
2020/12/11 10:31:16;;;;;;;0.20;0.20;;;11.10;99.90;;;;;;5031222;28;20491;-90
2020/12/11 10:33:42;;;;;;;0.30;0.30;;;11.10;99.90;;;;;;5029914;28;20061;-90
2020/12/11 10:36:08;;;;;;;0.10;0.10;;;11.10;99.90;;;;;;5031391;28;20044;-90
2020/12/11 10:38:34;;;;;;;0.10;0.10;;;10.90;99.90;;;;;;5030044;28;20048;-90
2020/12/11 10:41:00;;;;;;;0.10;0.10;;;11.00;99.90;;;;;;5025582;28;20029;-89
2020/12/11 10:43:25;;;;;;;0.10;0.10;;;11.00;99.90;;;;;;5029409;28;20036;-89
2020/12/11 10:45:51;;;;;;;0.38;0.38;;;11.00;99.90;;;;;;5017002;28;20081;-90
2020/12/11 10:48:17;;;;;;;0.30;0.30;;;10.90;99.90;;;;;;5031048;28;20032;-90
2020/12/11 10:50:43;;;;;;;0.10;0.10;;;11.00;99.90;;;;;;5031204;28;20030;-91
2020/12/11 10:53:08;;;;;;;0.10;0.10;;;11.20;99.90;;;;;;5030198;28;20025;-91
2020/12/11 10:55:34;;;;;;;0.10;0.10;;;11.40;99.90;;;;;;5030458;28;20117;-91
2020/12/11 10:58:00;;;;;;;0.10;0.10;;;11.50;99.90;;;;;;5029494;28;20026;-91
2020/12/11 11:00:25;;;;;;;0.10;0.10;;;11.50;99.90;;;;;;5029762;28;20033;-91
2020/12/11 11:02:51;;;;;;;0.10;0.10;;;11.50;99.90;;;;;;5023516;28;20056;-91
2020/12/11 11:05:17;;;;;;;0.98;0.65;;;11.50;99.90;;;;;;5026774;28;20068;-91
2020/12/11 11:07:43;;;;;;;0.13;0.13;;;11.50;99.90;;;;;;5029673;28;20033;-91
2020/12/11 11:12:57;;;;;;;0.10;0.10;;;11.40;99.90;;;;;;5031146;28;20030;-91
2020/12/11 11:15:45;;;;;;;0.20;0.20;;;11.50;99.90;;;;;;5031821;28;20033;-91
2020/12/11 11:26:10;;;;;;;0.20;0.20;;;11.70;99.90;;;;;;5031735;28;20044;-92
2020/12/11 11:28:36;;;;;;;0.25;0.25;;;11.70;99.90;;;;;;5013349;28;20399;-92
2020/12/11 11:31:02;;;;;;;0.10;0.10;;;11.90;99.90;;;;;;5031399;28;20096;-92
2020/12/11 11:33:28;;;;;;;0.10;0.10;;;11.90;99.90;;;;;;5012655;28;20144;-91
2020/12/11 11:35:53;;;;;;;0.20;0.20;;;12.10;99.90;;;;;;5013841;28;20018;-91
2020/12/11 11:38:19;;;;;;;0.10;0.10;;;12.50;99.90;;;;;;5008382;28;20032;-91
2020/12/11 11:40:48;;;;;;;0.10;0.10;;;12.20;99.90;;;;;;5030459;28;20029;-91
2020/12/11 11:43:17;;;;;;;0.10;0.10;;;12.30;99.90;;;;;;5026449;28;20028;-91
2020/12/11 11:45:43;;;;;;;0.20;0.20;;;12.30;99.90;;;;;;5013269;28;20144;-91
2020/12/11 11:48:12;;;;;;;0.10;0.10;;;12.20;99.90;;;;;;5036390;28;20583;-91
2020/12/11 11:53:14;;;;;;;0.13;0.13;;;12.10;99.90;;;;;;5030691;28;20021;-91
2020/12/11 11:55:43;;;;;;;0.20;0.20;;;12.10;99.90;;;;;;5014234;28;20057;-90
2020/12/11 11:58:09;;;;;;;1.17;0.47;;;11.90;99.90;;;;;;5030251;28;20032;-91
2020/12/11 12:00:36;;;;;;;0.10;0.10;;;12.00;99.90;;;;;;5012775;28;20022;-91
2020/12/11 12:03:02;;;;;;;0.10;0.10;;;12.00;99.90;;;;;;5038989;28;20387;-91
2020/12/11 12:05:28;;;;;;;0.10;0.10;;;12.20;99.90;;;;;;5048036;28;20033;-91
2020/12/11 12:07:53;;;;;;;0.10;0.10;;;12.10;99.90;;;;;;5033043;28;20052;-91
2020/12/11 12:10:19;;;;;;;0.20;0.20;;;12.20;99.90;;;;;;5012258;28;20029;-91
2020/12/11 12:12:45;;;;;;;0.10;0.10;;;12.50;99.90;;;;;;5019064;28;20141;-91
2020/12/11 12:15:19;;;;;;;0.25;0.25;;;13.20;99.90;;;;;;5022698;28;20104;-91
2020/12/11 12:18:05;;;;;;;0.10;0.10;;;13.20;99.90;;;;;;5045143;28;20360;-91
2020/12/11 12:20:49;;;;;;;0.20;0.20;;;13.50;99.90;;;;;;5034411;28;20028;-91
2020/12/11 12:31:17;;;;;;;0.10;0.10;;;13.10;99.90;;;;;;5035483;28;20040;-92
2020/12/11 12:44:32;;;;;;;0.10;0.10;;;13.20;99.90;;;;;;5032789;28;20080;-90
2020/12/11 12:46:58;;;;;;;0.10;0.10;;;13.50;99.90;;;;;;5013047;28;20065;-91
2020/12/11 12:49:24;;;;;;;0.10;0.10;;;13.80;99.90;;;;;;5025260;28;20033;-90
2020/12/11 12:51:50;;;;;;;0.10;0.10;;;13.60;99.90;;;;;;5014064;28;20025;-90
2020/12/11 12:54:15;;;;;;;0.10;0.10;;;13.50;99.90;;;;;;5031008;28;20097;-91
2020/12/11 12:56:45;;;;;;;0.10;0.10;;;13.50;99.90;;;;;;5008741;28;20057;-90
2020/12/11 13:02:11;;;;;;;0.10;0.10;;;14.40;99.90;;;;;;5030842;28;20032;-91
2020/12/11 13:04:42;;;;;;;0.10;0.10;;;14.20;99.90;;;;;;4997204;28;20120;-91
2020/12/11 13:07:08;;;;;;;0.10;0.10;;;13.70;99.90;;;;;;5006564;28;20076;-92
2020/12/11 13:09:34;;;;;;;0.10;0.10;;;13.30;99.90;;;;;;5015228;28;20018;-93
2020/12/11 13:12:00;;;;;;;0.10;0.10;;;13.20;99.90;;;;;;5025232;28;20417;-92
2020/12/11 13:14:26;;;;;;;3.97;1.08;;;13.10;99.90;;;;;;5048154;28;20013;-92
2020/12/11 13:16:52;;;;;;;0.15;0.15;;;12.80;99.90;;;;;;5021324;28;20053;-91
2020/12/11 13:19:20;;;;;;;0.13;0.13;;;12.80;99.90;;;;;;4996659;28;20536;-92
2020/12/11 13:27:10;;;;;;;0.35;0.35;;;12.90;99.90;;;;;;5020836;28;20049;-92
2020/12/11 13:29:36;;;;;;;0.10;0.10;;;13.10;99.90;;;;;;4998496;28;20493;-91
2020/12/11 13:32:02;;;;;;;0.32;0.32;;;13.00;99.90;;;;;;5014391;28;20104;-91
2020/12/11 13:34:28;;;;;;;0.10;0.10;;;13.00;99.90;;;;;;5017948;28;20822;-91
2020/12/11 13:36:55;;;;;;;0.20;0.20;;;12.90;99.90;;;;;;5016609;28;20026;-91
2020/12/11 13:39:21;;;;;;;0.10;0.10;;;12.70;99.90;;;;;;5007682;28;20056;-90
2020/12/11 13:41:47;;;;;;;0.22;0.22;;;12.70;99.90;;;;;;5001673;28;20511;-90
2020/12/11 13:44:13;;;;;;;0.10;0.10;;;12.70;99.90;;;;;;4999713;28;20478;-91
2020/12/11 13:46:43;;;;;;;0.55;0.55;;;12.70;99.90;;;;;;5005870;28;20470;-90
2020/12/11 13:49:09;;;;;;;0.35;0.35;;;12.70;99.90;;;;;;5003579;28;20028;-90
2020/12/11 13:51:35;;;;;;;0.10;0.10;;;12.80;99.90;;;;;;5034827;28;20022;-90
2020/12/11 13:54:01;;;;;;;0.20;0.20;;;12.90;99.90;;;;;;5012117;28;20022;-90
2020/12/11 13:56:26;;;;;;;0.10;0.10;;;12.80;99.90;;;;;;5014141;28;20022;-90
2020/12/11 13:58:52;;;;;;;0.68;0.68;;;12.50;99.90;;;;;;5024454;28;20026;-90
2020/12/11 14:01:18;;;;;;;0.15;0.15;;;12.90;99.90;;;;;;5013773;28;20116;-89
2020/12/11 14:03:44;;;;;;;0.22;0.22;;;13.10;99.90;;;;;;5000890;28;20034;-89
2020/12/11 14:06:09;;;;;;;0.10;0.10;;;13.10;99.90;;;;;;5006566;28;20037;-90